sensor_id;sensor_type;location;lat;lon;timestamp;pressure;altitude;pressure_sealevel;temperature;humidity
23318;BME280;11831;55.918;37.746;2023-06-14T00:02:16;99710.94;;;15.30;0.00
23318;BME280;11831;55.918;37.746;2023-06-14T00:04:42;99713.56;;;15.46;0.00
23318;BME280;11831;55.918;37.746;2023-06-14T00:07:09;99713.47;;;15.36;0.00
23318;BME280;11831;55.918;37.746;2023-06-14T00:09:36;99718.06;;;15.36;0.00
23318;BME280;11831;55.918;37.746;2023-06-14T00:12:02;99718.47;;;15.28;0.00
23318;BME280;11831;55.918;37.746;2023-06-14T00:14:29;99721.69;;;15.25;0.00
23318;BME280;11831;55.918;37.746;2023-06-14T00:16:56;99712.28;;;15.27;0.00
23318;BME280;11831;55.918;37.746;2023-06-14T00:19:26;99716.47;;;15.18;0.00
23318;BME280;11831;55.918;37.746;2023-06-14T00:21:53;99715.88;;;15.11;0.00
23318;BME280;11831;55.918;37.746;2023-06-14T00:24:20;99713.94;;;15.06;0.00
23318;BME280;11831;55.918;37.746;2023-06-14T00:26:47;99715.34;;;14.92;0.00
23318;BME280;11831;55.918;37.746;2023-06-14T00:29:14;99716.69;;;15.11;0.00
23318;BME280;11831;55.918;37.746;2023-06-14T00:31:41;99716.56;;;15.01;0.00
23318;BME280;11831;55.918;37.746;2023-06-14T00:34:07;99709.78;;;14.99;0.00
23318;BME280;11831;55.918;37.746;2023-06-14T00:36:35;99719.47;;;15.21;0.00
23318;BME280;11831;55.918;37.746;2023-06-14T00:39:01;99711.91;;;15.18;0.00
23318;BME280;11831;55.918;37.746;2023-06-14T00:41:29;99721.94;;;15.01;0.00
23318;BME280;11831;55.918;37.746;2023-06-14T00:43:56;99713.06;;;15.01;0.00
23318;BME280;11831;55.918;37.746;2023-06-14T00:46:23;99717.63;;;15.00;0.00
23318;BME280;11831;55.918;37.746;2023-06-14T00:48:49;99710.47;;;14.89;0.00
23318;BME280;11831;55.918;37.746;2023-06-14T00:51:17;99712.47;;;14.77;0.00
23318;BME280;11831;55.918;37.746;2023-06-14T00:53:44;99715.28;;;14.87;0.00
23318;BME280;11831;55.918;37.746;2023-06-14T00:56:14;99714.22;;;14.88;0.00
23318;BME280;11831;55.918;37.746;2023-06-14T00:58:43;99716.22;;;14.98;0.00
23318;BME280;11831;55.918;37.746;2023-06-14T01:01:10;99707.78;;;14.89;0.00
23318;BME280;11831;55.918;37.746;2023-06-14T01:03:36;99703.66;;;15.03;0.00
23318;BME280;11831;55.918;37.746;2023-06-14T01:06:30;99707.88;;;14.99;0.00
23318;BME280;11831;55.918;37.746;2023-06-14T01:12:11;99710.47;;;14.89;0.00
23318;BME280;11831;55.918;37.746;2023-06-14T01:14:36;99711.41;;;15.00;0.00
23318;BME280;11831;55.918;37.746;2023-06-14T01:17:03;99709.78;;;14.77;0.00
23318;BME280;11831;55.918;37.746;2023-06-14T01:19:32;99710.34;;;14.79;0.00
23318;BME280;11831;55.918;37.746;2023-06-14T01:22:01;99714.16;;;14.83;0.00
23318;BME280;11831;55.918;37.746;2023-06-14T01:24:28;99713.41;;;14.87;0.00
23318;BME280;11831;55.918;37.746;2023-06-14T01:26:59;99717.53;;;14.95;0.00
23318;BME280;11831;55.918;37.746;2023-06-14T01:29:29;99719.06;;;15.08;0.00
23318;BME280;11831;55.918;37.746;2023-06-14T01:32:05;99723.41;;;14.92;0.00
23318;BME280;11831;55.918;37.746;2023-06-14T01:34:33;99722.25;;;15.05;0.00
23318;BME280;11831;55.918;37.746;2023-06-14T01:37:01;99716.97;;;14.93;0.00
23318;BME280;11831;55.918;37.746;2023-06-14T01:39:29;99719.63;;;15.10;0.00
23318;BME280;11831;55.918;37.746;2023-06-14T01:41:56;99722.69;;;15.18;0.00
23318;BME280;11831;55.918;37.746;2023-06-14T01:44:25;99716.69;;;15.11;0.00
23318;BME280;11831;55.918;37.746;2023-06-14T01:46:52;99722.00;;;15.06;0.00
23318;BME280;11831;55.918;37.746;2023-06-14T01:49:18;99720.38;;;15.05;0.00
23318;BME280;11831;55.918;37.746;2023-06-14T01:51:46;99723.38;;;15.09;0.00
23318;BME280;11831;55.918;37.746;2023-06-14T01:54:13;99723.62;;;15.07;0.00
23318;BME280;11831;55.918;37.746;2023-06-14T01:56:39;99723.38;;;15.09;0.00
23318;BME280;11831;55.918;37.746;2023-06-14T01:59:06;99724.13;;;15.04;0.00
23318;BME280;11831;55.918;37.746;2023-06-14T02:01:33;99724.94;;;15.05;0.00
23318;BME280;11831;55.918;37.746;2023-06-14T02:04:00;99724.53;;;14.96;0.00
23318;BME280;11831;55.918;37.746;2023-06-14T02:06:27;99720.66;;;14.87;0.00
23318;BME280;11831;55.918;37.746;2023-06-14T02:08:54;99722.50;;;15.25;0.00
23318;BME280;11831;55.918;37.746;2023-06-14T02:11:21;99724.84;;;15.00;0.00
23318;BME280;11831;55.918;37.746;2023-06-14T02:13:47;99719.63;;;15.32;0.00
23318;BME280;11831;55.918;37.746;2023-06-14T02:16:14;99721.41;;;15.26;0.00
23318;BME280;11831;55.918;37.746;2023-06-14T02:18:40;99720.38;;;15.05;0.00
23318;BME280;11831;55.918;37.746;2023-06-14T02:21:07;99723.25;;;15.20;0.00
23318;BME280;11831;55.918;37.746;2023-06-14T02:23:33;99728.06;;;15.18;0.00
23318;BME280;11831;55.918;37.746;2023-06-14T02:26:00;99728.63;;;15.20;0.00
23318;BME280;11831;55.918;37.746;2023-06-14T02:28:26;99734.53;;;15.17;0.00
23318;BME280;11831;55.918;37.746;2023-06-14T02:30:53;99722.88;;;15.12;0.00
23318;BME280;11831;55.918;37.746;2023-06-14T02:33:19;99720.34;;;15.27;0.00
23318;BME280;11831;55.918;37.746;2023-06-14T02:35:46;99720.81;;;15.19;0.00
23318;BME280;11831;55.918;37.746;2023-06-14T02:38:13;99724.06;;;15.21;0.00
23318;BME280;11831;55.918;37.746;2023-06-14T02:40:40;99718.81;;;15.09;0.00
23318;BME280;11831;55.918;37.746;2023-06-14T02:43:08;99730.75;;;14.97;0.00
23318;BME280;11831;55.918;37.746;2023-06-14T02:45:35;99731.53;;;15.14;0.00
23318;BME280;11831;55.918;37.746;2023-06-14T02:48:01;99728.69;;;15.26;0.00
23318;BME280;11831;55.918;37.746;2023-06-14T02:50:28;99729.84;;;15.57;0.00
23318;BME280;11831;55.918;37.746;2023-06-14T02:52:56;99736.66;;;15.15;0.00
23318;BME280;11831;55.918;37.746;2023-06-14T02:55:23;99733.94;;;15.59;0.00
23318;BME280;11831;55.918;37.746;2023-06-14T02:57:49;99737.22;;;15.61;0.00
23318;BME280;11831;55.918;37.746;2023-06-14T03:00:16;99741.47;;;15.84;0.00
23318;BME280;11831;55.918;37.746;2023-06-14T03:02:43;99744.38;;;15.77;0.00
23318;BME280;11831;55.918;37.746;2023-06-14T03:05:10;99752.72;;;15.76;0.00
23318;BME280;11831;55.918;37.746;2023-06-14T03:07:37;99740.09;;;16.08;0.00
23318;BME280;11831;55.918;37.746;2023-06-14T03:10:08;99750.28;;;16.01;0.00
23318;BME280;11831;55.918;37.746;2023-06-14T03:12:39;99744.91;;;16.01;0.00
23318;BME280;11831;55.918;37.746;2023-06-14T03:15:06;99749.34;;;15.91;0.00
23318;BME280;11831;55.918;37.746;2023-06-14T03:17:33;99748.44;;;16.07;0.00
23318;BME280;11831;55.918;37.746;2023-06-14T03:20:01;99749.06;;;16.19;0.00
23318;BME280;11831;55.918;37.746;2023-06-14T03:22:31;99755.41;;;16.30;0.00
23318;BME280;11831;55.918;37.746;2023-06-14T03:25:00;99756.25;;;16.03;0.00
23318;BME280;11831;55.918;37.746;2023-06-14T03:27:27;99752.28;;;16.48;0.00
23318;BME280;11831;55.918;37.746;2023-06-14T03:29:54;99756.66;;;16.54;0.00
23318;BME280;11831;55.918;37.746;2023-06-14T03:32:21;99752.22;;;16.75;0.00
23318;BME280;11831;55.918;37.746;2023-06-14T03:34:47;99753.81;;;16.71;0.00
23318;BME280;11831;55.918;37.746;2023-06-14T03:37:14;99760.16;;;16.92;0.00
23318;BME280;11831;55.918;37.746;2023-06-14T03:39:41;99758.84;;;16.99;0.00
23318;BME280;11831;55.918;37.746;2023-06-14T03:42:13;99756.75;;;17.12;0.00
23318;BME280;11831;55.918;37.746;2023-06-14T03:44:40;99751.53;;;16.95;0.00
23318;BME280;11831;55.918;37.746;2023-06-14T03:47:07;99741.13;;;17.24;0.00
23318;BME280;11831;55.918;37.746;2023-06-14T03:49:34;99741.34;;;17.12;0.00
23318;BME280;11831;55.918;37.746;2023-06-14T03:52:01;99738.44;;;17.19;0.00
23318;BME280;11831;55.918;37.746;2023-06-14T03:54:28;99744.16;;;17.43;0.00
23318;BME280;11831;55.918;37.746;2023-06-14T03:56:54;99740.34;;;17.33;0.00
23318;BME280;11831;55.918;37.746;2023-06-14T03:59:23;99741.19;;;17.39;0.00
23318;BME280;11831;55.918;37.746;2023-06-14T04:01:50;99730.50;;;17.75;0.00
23318;BME280;11831;55.918;37.746;2023-06-14T04:04:17;99739.47;;;17.90;0.00
23318;BME280;11831;55.918;37.746;2023-06-14T04:06:44;99730.25;;;18.32;0.00
23318;BME280;11831;55.918;37.746;2023-06-14T04:09:15;99735.41;;;18.44;0.00
23318;BME280;11831;55.918;37.746;2023-06-14T04:11:42;99738.91;;;18.59;0.00
23318;BME280;11831;55.918;37.746;2023-06-14T04:14:08;99740.53;;;18.81;0.00
23318;BME280;11831;55.918;37.746;2023-06-14T04:16:35;99748.38;;;18.67;0.00
23318;BME280;11831;55.918;37.746;2023-06-14T04:19:01;99752.47;;;18.65;0.00
23318;BME280;11831;55.918;37.746;2023-06-14T04:21:28;99752.97;;;18.87;0.00
23318;BME280;11831;55.918;37.746;2023-06-14T04:23:54;99748.91;;;18.89;0.00
23318;BME280;11831;55.918;37.746;2023-06-14T04:26:22;99740.19;;;19.03;0.00
23318;BME280;11831;55.918;37.746;2023-06-14T04:28:50;99741.69;;;19.39;0.00
23318;BME280;11831;55.918;37.746;2023-06-14T04:31:17;99741.94;;;19.43;0.00
23318;BME280;11831;55.918;37.746;2023-06-14T04:33:44;99750.63;;;19.40;0.00
23318;BME280;11831;55.918;37.746;2023-06-14T04:36:12;99737.34;;;19.93;0.00
23318;BME280;11831;55.918;37.746;2023-06-14T04:38:39;99742.59;;;20.13;0.00
23318;BME280;11831;55.918;37.746;2023-06-14T04:41:06;99741.94;;;19.92;0.00
23318;BME280;11831;55.918;37.746;2023-06-14T04:43:32;99741.06;;;19.58;0.00
23318;BME280;11831;55.918;37.746;2023-06-14T04:46:05;99747.38;;;19.38;0.00
23318;BME280;11831;55.918;37.746;2023-06-14T04:48:38;99746.84;;;19.90;0.00
23318;BME280;11831;55.918;37.746;2023-06-14T04:51:10;99739.03;;;19.78;0.00
23318;BME280;11831;55.918;37.746;2023-06-14T04:53:37;99735.50;;;20.17;0.00
23318;BME280;11831;55.918;37.746;2023-06-14T04:56:04;99741.34;;;20.34;0.00
23318;BME280;11831;55.918;37.746;2023-06-14T04:58:30;99738.44;;;20.60;0.00
23318;BME280;11831;55.918;37.746;2023-06-14T05:00:58;99746.78;;;20.34;0.00
23318;BME280;11831;55.918;37.746;2023-06-14T05:03:25;99744.72;;;20.55;0.00
23318;BME280;11831;55.918;37.746;2023-06-14T05:05:53;99742.94;;;20.69;0.00
23318;BME280;11831;55.918;37.746;2023-06-14T05:08:20;99734.53;;;20.95;0.00
23318;BME280;11831;55.918;37.746;2023-06-14T05:10:50;99742.53;;;20.81;0.00
23318;BME280;11831;55.918;37.746;2023-06-14T05:13:18;99740.28;;;21.12;0.00
23318;BME280;11831;55.918;37.746;2023-06-14T05:15:44;99734.59;;;20.90;0.00
23318;BME280;11831;55.918;37.746;2023-06-14T05:18:11;99740.88;;;21.09;0.00
23318;BME280;11831;55.918;37.746;2023-06-14T05:20:40;99738.94;;;21.57;0.00
23318;BME280;11831;55.918;37.746;2023-06-14T05:23:09;99748.69;;;21.16;0.00
23318;BME280;11831;55.918;37.746;2023-06-14T05:25:45;99743.13;;;21.68;0.00
23318;BME280;11831;55.918;37.746;2023-06-14T05:28:12;99747.25;;;21.66;0.00
23318;BME280;11831;55.918;37.746;2023-06-14T05:30:39;99746.66;;;21.50;0.00
23318;BME280;11831;55.918;37.746;2023-06-14T05:33:08;99740.41;;;21.50;0.00
23318;BME280;11831;55.918;37.746;2023-06-14T05:35:34;99738.50;;;21.50;0.00
23318;BME280;11831;55.918;37.746;2023-06-14T05:38:01;99741.00;;;21.84;0.00
23318;BME280;11831;55.918;37.746;2023-06-14T05:40:27;99733.56;;;21.71;0.00
23318;BME280;11831;55.918;37.746;2023-06-14T05:42:54;99736.94;;;22.19;0.00
23318;BME280;11831;55.918;37.746;2023-06-14T05:45:20;99739.81;;;21.90;0.00
23318;BME280;11831;55.918;37.746;2023-06-14T05:47:47;99744.91;;;22.16;0.00
23318;BME280;11831;55.918;37.746;2023-06-14T05:50:13;99743.53;;;22.32;0.00
23318;BME280;11831;55.918;37.746;2023-06-14T05:52:40;99736.16;;;22.19;0.00
23318;BME280;11831;55.918;37.746;2023-06-14T05:55:06;99738.16;;;22.13;0.00
23318;BME280;11831;55.918;37.746;2023-06-14T05:57:34;99730.72;;;21.81;0.00
23318;BME280;11831;55.918;37.746;2023-06-14T06:00:00;99754.28;;;22.10;0.00
23318;BME280;11831;55.918;37.746;2023-06-14T06:02:27;99738.25;;;22.54;0.00
23318;BME280;11831;55.918;37.746;2023-06-14T06:04:53;99751.97;;;22.49;0.00
23318;BME280;11831;55.918;37.746;2023-06-14T06:07:20;99745.53;;;22.26;0.00
23318;BME280;11831;55.918;37.746;2023-06-14T06:09:46;99750.53;;;22.38;0.00
23318;BME280;11831;55.918;37.746;2023-06-14T06:12:13;99749.56;;;22.61;0.00
23318;BME280;11831;55.918;37.746;2023-06-14T06:14:39;99750.03;;;22.82;0.00
23318;BME280;11831;55.918;37.746;2023-06-14T06:17:06;99753.41;;;23.07;0.00
23318;BME280;11831;55.918;37.746;2023-06-14T06:19:33;99753.84;;;22.68;0.00
23318;BME280;11831;55.918;37.746;2023-06-14T06:21:59;99755.50;;;22.82;0.00
23318;BME280;11831;55.918;37.746;2023-06-14T06:24:26;99748.03;;;22.88;0.00
23318;BME280;11831;55.918;37.746;2023-06-14T06:26:52;99741.84;;;22.69;0.00
23318;BME280;11831;55.918;37.746;2023-06-14T06:29:19;99743.78;;;22.82;0.00
23318;BME280;11831;55.918;37.746;2023-06-14T06:31:46;99741.06;;;23.09;0.00
23318;BME280;11831;55.918;37.746;2023-06-14T06:34:12;99745.31;;;23.15;0.00
23318;BME280;11831;55.918;37.746;2023-06-14T06:36:39;99742.50;;;22.60;0.00
23318;BME280;11831;55.918;37.746;2023-06-14T06:39:05;99747.88;;;22.79;0.00
23318;BME280;11831;55.918;37.746;2023-06-14T06:41:37;99741.31;;;22.67;0.00
23318;BME280;11831;55.918;37.746;2023-06-14T06:44:06;99739.97;;;23.10;0.00
23318;BME280;11831;55.918;37.746;2023-06-14T06:46:33;99742.75;;;22.78;0.00
23318;BME280;11831;55.918;37.746;2023-06-14T06:49:01;99725.72;;;23.13;0.00
23318;BME280;11831;55.918;37.746;2023-06-14T06:51:27;99734.69;;;23.14;0.00
23318;BME280;11831;55.918;37.746;2023-06-14T06:53:54;99727.84;;;23.30;0.00
23318;BME280;11831;55.918;37.746;2023-06-14T06:56:21;99729.00;;;22.69;0.00
23318;BME280;11831;55.918;37.746;2023-06-14T06:58:51;99721.59;;;22.56;0.00
23318;BME280;11831;55.918;37.746;2023-06-14T07:01:17;99723.72;;;23.05;0.00
23318;BME280;11831;55.918;37.746;2023-06-14T07:03:46;99719.72;;;23.39;0.00
23318;BME280;11831;55.918;37.746;2023-06-14T07:06:12;99726.00;;;23.39;0.00
23318;BME280;11831;55.918;37.746;2023-06-14T07:08:39;99723.56;;;23.24;0.00
23318;BME280;11831;55.918;37.746;2023-06-14T07:11:05;99734.06;;;23.44;0.00
23318;BME280;11831;55.918;37.746;2023-06-14T07:13:32;99724.97;;;23.49;0.00
23318;BME280;11831;55.918;37.746;2023-06-14T07:15:59;99729.00;;;23.51;0.00
23318;BME280;11831;55.918;37.746;2023-06-14T07:18:27;99733.47;;;23.83;0.00
23318;BME280;11831;55.918;37.746;2023-06-14T07:20:54;99732.25;;;23.67;0.00
23318;BME280;11831;55.918;37.746;2023-06-14T07:23:21;99735.59;;;23.64;0.00
23318;BME280;11831;55.918;37.746;2023-06-14T07:25:47;99727.88;;;23.52;0.00
23318;BME280;11831;55.918;37.746;2023-06-14T07:28:15;99712.13;;;23.63;0.00
23318;BME280;11831;55.918;37.746;2023-06-14T07:30:42;99716.91;;;23.58;0.00
23318;BME280;11831;55.918;37.746;2023-06-14T07:33:09;99713.53;;;23.97;0.00
23318;BME280;11831;55.918;37.746;2023-06-14T07:35:37;99713.78;;;23.23;0.00
23318;BME280;11831;55.918;37.746;2023-06-14T07:38:04;99714.69;;;23.60;0.00
23318;BME280;11831;55.918;37.746;2023-06-14T07:40:31;99715.66;;;23.64;0.00
23318;BME280;11831;55.918;37.746;2023-06-14T07:42:58;99714.62;;;23.73;0.00
23318;BME280;11831;55.918;37.746;2023-06-14T07:45:24;99711.41;;;24.16;0.00
23318;BME280;11831;55.918;37.746;2023-06-14T07:47:51;99711.66;;;24.06;0.00
23318;BME280;11831;55.918;37.746;2023-06-14T07:50:18;99711.00;;;24.23;0.00
23318;BME280;11831;55.918;37.746;2023-06-14T07:52:45;99718.09;;;23.88;0.00
23318;BME280;11831;55.918;37.746;2023-06-14T07:55:13;99717.06;;;24.20;0.00
23318;BME280;11831;55.918;37.746;2023-06-14T07:57:41;99710.25;;;24.31;0.00
23318;BME280;11831;55.918;37.746;2023-06-14T08:00:09;99722.97;;;24.35;0.00
23318;BME280;11831;55.918;37.746;2023-06-14T08:02:39;99718.00;;;24.37;0.00
23318;BME280;11831;55.918;37.746;2023-06-14T08:05:05;99707.50;;;23.86;0.00
23318;BME280;11831;55.918;37.746;2023-06-14T08:07:32;99708.69;;;24.38;0.00
23318;BME280;11831;55.918;37.746;2023-06-14T08:09:58;99711.47;;;24.02;0.00
23318;BME280;11831;55.918;37.746;2023-06-14T08:12:25;99710.94;;;23.92;0.00
23318;BME280;11831;55.918;37.746;2023-06-14T08:14:52;99712.84;;;24.13;0.00
23318;BME280;11831;55.918;37.746;2023-06-14T08:17:18;99715.41;;;24.32;0.00
23318;BME280;11831;55.918;37.746;2023-06-14T08:19:45;99711.28;;;24.43;0.00
23318;BME280;11831;55.918;37.746;2023-06-14T08:22:12;99723.88;;;24.08;0.00
23318;BME280;11831;55.918;37.746;2023-06-14T08:24:39;99711.47;;;24.02;0.00
23318;BME280;11831;55.918;37.746;2023-06-14T08:27:06;99711.97;;;24.49;0.00
23318;BME280;11831;55.918;37.746;2023-06-14T08:29:33;99711.81;;;24.85;0.00
23318;BME280;11831;55.918;37.746;2023-06-14T08:32:00;99716.66;;;24.88;0.00
23318;BME280;11831;55.918;37.746;2023-06-14T08:34:27;99721.19;;;24.62;0.00
23318;BME280;11831;55.918;37.746;2023-06-14T08:36:53;99724.00;;;24.48;0.00
23318;BME280;11831;55.918;37.746;2023-06-14T08:39:20;99714.81;;;24.75;0.00
23318;BME280;11831;55.918;37.746;2023-06-14T08:41:47;99716.19;;;24.95;0.00
23318;BME280;11831;55.918;37.746;2023-06-14T08:44:17;99718.25;;;25.29;0.00
23318;BME280;11831;55.918;37.746;2023-06-14T08:46:44;99708.53;;;25.05;0.00
23318;BME280;11831;55.918;37.746;2023-06-14T08:49:12;99712.84;;;24.67;0.00
23318;BME280;11831;55.918;37.746;2023-06-14T08:51:39;99704.06;;;24.48;0.00
23318;BME280;11831;55.918;37.746;2023-06-14T08:54:07;99703.34;;;24.56;0.00
23318;BME280;11831;55.918;37.746;2023-06-14T08:56:34;99709.59;;;24.96;0.00
23318;BME280;11831;55.918;37.746;2023-06-14T08:59:00;99693.88;;;25.01;0.00
23318;BME280;11831;55.918;37.746;2023-06-14T09:01:33;99703.28;;;25.35;0.00
23318;BME280;11831;55.918;37.746;2023-06-14T09:04:00;99687.63;;;25.10;0.00
23318;BME280;11831;55.918;37.746;2023-06-14T09:06:28;99691.25;;;25.45;0.00
23318;BME280;11831;55.918;37.746;2023-06-14T09:08:59;99690.06;;;25.20;0.00
23318;BME280;11831;55.918;37.746;2023-06-14T09:11:26;99690.28;;;25.58;0.00
23318;BME280;11831;55.918;37.746;2023-06-14T09:13:53;99689.81;;;25.47;0.00
23318;BME280;11831;55.918;37.746;2023-06-14T09:16:19;99687.87;;;25.56;0.00
23318;BME280;11831;55.918;37.746;2023-06-14T09:18:47;99690.44;;;25.44;0.00
23318;BME280;11831;55.918;37.746;2023-06-14T09:21:16;99695.87;;;25.35;0.00
23318;BME280;11831;55.918;37.746;2023-06-14T09:23:45;99692.84;;;25.46;0.00
23318;BME280;11831;55.918;37.746;2023-06-14T09:26:14;99684.91;;;25.18;0.00
23318;BME280;11831;55.918;37.746;2023-06-14T09:28:42;99679.50;;;25.53;0.00
23318;BME280;11831;55.918;37.746;2023-06-14T09:31:16;99678.53;;;25.66;0.00
23318;BME280;11831;55.918;37.746;2023-06-14T09:33:44;99680.00;;;25.81;0.00
23318;BME280;11831;55.918;37.746;2023-06-14T09:36:21;99674.81;;;25.53;0.00
23318;BME280;11831;55.918;37.746;2023-06-14T09:38:55;99678.53;;;26.00;0.00
23318;BME280;11831;55.918;37.746;2023-06-14T09:44:00;99676.94;;;25.91;0.00
23318;BME280;11831;55.918;37.746;2023-06-14T09:46:29;99669.19;;;26.10;0.00
23318;BME280;11831;55.918;37.746;2023-06-14T09:48:59;99670.00;;;26.11;0.00
23318;BME280;11831;55.918;37.746;2023-06-14T09:51:27;99668.69;;;26.08;0.00
23318;BME280;11831;55.918;37.746;2023-06-14T09:54:01;99665.75;;;26.39;0.00
23318;BME280;11831;55.918;37.746;2023-06-14T09:56:29;99662.25;;;26.13;0.00
23318;BME280;11831;55.918;37.746;2023-06-14T09:58:58;99676.69;;;26.30;0.00
23318;BME280;11831;55.918;37.746;2023-06-14T10:01:26;99663.78;;;26.31;0.00
23318;BME280;11831;55.918;37.746;2023-06-14T10:03:58;99668.38;;;26.10;0.00
23318;BME280;11831;55.918;37.746;2023-06-14T10:06:28;99663.44;;;26.50;0.00
23318;BME280;11831;55.918;37.746;2023-06-14T10:08:59;99663.34;;;26.20;0.00
23318;BME280;11831;55.918;37.746;2023-06-14T10:11:27;99650.47;;;26.12;0.00
23318;BME280;11831;55.918;37.746;2023-06-14T10:13:58;99647.75;;;25.95;0.00
23318;BME280;11831;55.918;37.746;2023-06-14T10:19:21;99645.50;;;25.97;0.00
23318;BME280;11831;55.918;37.746;2023-06-14T10:22:06;99635.84;;;26.64;0.00
23318;BME280;11831;55.918;37.746;2023-06-14T10:24:44;99633.31;;;26.33;0.00
23318;BME280;11831;55.918;37.746;2023-06-14T10:27:15;99630.66;;;25.98;0.00
23318;BME280;11831;55.918;37.746;2023-06-14T10:32:21;99630.06;;;25.84;0.00
23318;BME280;11831;55.918;37.746;2023-06-14T10:34:59;99631.16;;;26.00;0.00
23318;BME280;11831;55.918;37.746;2023-06-14T10:37:26;99636.47;;;25.96;0.00
23318;BME280;11831;55.918;37.746;2023-06-14T10:39:53;99631.97;;;26.65;0.00
23318;BME280;11831;55.918;37.746;2023-06-14T10:42:20;99617.78;;;26.07;0.00
23318;BME280;11831;55.918;37.746;2023-06-14T10:44:54;99626.91;;;26.37;0.00
23318;BME280;11831;55.918;37.746;2023-06-14T10:47:33;99624.31;;;26.41;0.00
23318;BME280;11831;55.918;37.746;2023-06-14T10:50:06;99626.87;;;26.46;0.00
23318;BME280;11831;55.918;37.746;2023-06-14T10:52:34;99621.91;;;26.22;0.00
23318;BME280;11831;55.918;37.746;2023-06-14T10:55:03;99613.69;;;26.69;0.00
23318;BME280;11831;55.918;37.746;2023-06-14T10:57:33;99618.44;;;26.04;0.00
23318;BME280;11831;55.918;37.746;2023-06-14T11:00:00;99617.22;;;26.40;0.00
23318;BME280;11831;55.918;37.746;2023-06-14T11:03:04;99617.19;;;26.48;0.00
23318;BME280;11831;55.918;37.746;2023-06-14T11:05:59;99603.72;;;26.17;0.00
23318;BME280;11831;55.918;37.746;2023-06-14T11:11:33;99614.44;;;25.58;0.00
23318;BME280;11831;55.918;37.746;2023-06-14T11:14:00;99603.63;;;26.81;0.00
23318;BME280;11831;55.918;37.746;2023-06-14T11:16:29;99611.78;;;26.99;0.00
23318;BME280;11831;55.918;37.746;2023-06-14T11:18:55;99611.47;;;27.96;0.00
23318;BME280;11831;55.918;37.746;2023-06-14T11:21:23;99603.53;;;27.61;0.00
23318;BME280;11831;55.918;37.746;2023-06-14T11:23:51;99595.78;;;28.54;0.00
23318;BME280;11831;55.918;37.746;2023-06-14T11:28:55;99580.66;;;28.60;0.00
23318;BME280;11831;55.918;37.746;2023-06-14T11:31:23;99610.47;;;29.75;0.00
23318;BME280;11831;55.918;37.746;2023-06-14T11:33:50;99602.19;;;30.97;0.00
23318;BME280;11831;55.918;37.746;2023-06-14T11:36:17;99593.38;;;31.65;0.00
23318;BME280;11831;55.918;37.746;2023-06-14T11:38:44;99597.28;;;31.84;41.43
23318;BME280;11831;55.918;37.746;2023-06-14T11:41:11;99598.59;;;31.51;0.00
23318;BME280;11831;55.918;37.746;2023-06-14T11:43:37;99588.41;;;31.94;41.55
23318;BME280;11831;55.918;37.746;2023-06-14T11:46:12;99586.03;;;33.44;39.76
23318;BME280;11831;55.918;37.746;2023-06-14T11:48:41;99581.91;;;34.01;38.17
23318;BME280;11831;55.918;37.746;2023-06-14T11:51:08;99577.50;;;33.29;38.25
23318;BME280;11831;55.918;37.746;2023-06-14T11:53:35;99580.34;;;34.48;37.45
23318;BME280;11831;55.918;37.746;2023-06-14T11:56:02;99583.41;;;34.83;36.25
23318;BME280;11831;55.918;37.746;2023-06-14T11:58:29;99575.38;;;34.75;34.76
23318;BME280;11831;55.918;37.746;2023-06-14T12:00:56;99576.97;;;37.41;33.44
23318;BME280;11831;55.918;37.746;2023-06-14T12:03:24;99567.91;;;37.15;32.91
23318;BME280;11831;55.918;37.746;2023-06-14T12:06:07;99581.06;;;37.04;31.92
23318;BME280;11831;55.918;37.746;2023-06-14T12:08:36;99572.97;;;39.35;30.44
23318;BME280;11831;55.918;37.746;2023-06-14T12:11:12;99575.16;;;40.78;29.36
23318;BME280;11831;55.918;37.746;2023-06-14T12:13:41;99566.87;;;40.51;28.88
23318;BME280;11831;55.918;37.746;2023-06-14T12:16:11;99559.37;;;41.67;27.69
23318;BME280;11831;55.918;37.746;2023-06-14T12:18:39;99564.78;;;42.27;27.37
23318;BME280;11831;55.918;37.746;2023-06-14T12:21:07;99545.97;;;41.55;26.90
23318;BME280;11831;55.918;37.746;2023-06-14T12:23:45;99560.38;;;42.09;26.93
23318;BME280;11831;55.918;37.746;2023-06-14T12:26:21;99555.31;;;39.41;27.69
23318;BME280;11831;55.918;37.746;2023-06-14T12:28:48;99542.59;;;39.37;27.97
23318;BME280;11831;55.918;37.746;2023-06-14T12:31:15;99540.19;;;40.20;27.46
23318;BME280;11831;55.918;37.746;2023-06-14T12:33:43;99539.91;;;41.56;26.78
23318;BME280;11831;55.918;37.746;2023-06-14T12:36:11;99542.28;;;42.59;26.21
23318;BME280;11831;55.918;37.746;2023-06-14T12:38:38;99545.25;;;43.52;25.42
23318;BME280;11831;55.918;37.746;2023-06-14T12:41:04;99543.91;;;42.86;25.62
23318;BME280;11831;55.918;37.746;2023-06-14T12:43:32;99545.16;;;42.85;25.23
23318;BME280;11831;55.918;37.746;2023-06-14T12:45:59;99534.28;;;41.20;25.71
23318;BME280;11831;55.918;37.746;2023-06-14T12:48:26;99534.81;;;40.95;25.52
23318;BME280;11831;55.918;37.746;2023-06-14T12:50:58;99536.16;;;40.21;25.81
23318;BME280;11831;55.918;37.746;2023-06-14T12:53:25;99526.31;;;39.86;26.18
23318;BME280;11831;55.918;37.746;2023-06-14T12:55:52;99526.31;;;42.24;24.80
23318;BME280;11831;55.918;37.746;2023-06-14T12:58:18;99528.75;;;40.11;24.98
23318;BME280;11831;55.918;37.746;2023-06-14T13:00:46;99528.78;;;40.30;25.37
23318;BME280;11831;55.918;37.746;2023-06-14T13:03:13;99522.19;;;41.79;24.97
23318;BME280;11831;55.918;37.746;2023-06-14T13:05:40;99531.56;;;42.22;24.46
23318;BME280;11831;55.918;37.746;2023-06-14T13:08:08;99519.84;;;42.27;24.33
23318;BME280;11831;55.918;37.746;2023-06-14T13:10:35;99523.50;;;41.75;24.73
23318;BME280;11831;55.918;37.746;2023-06-14T13:13:01;99510.84;;;40.04;25.36
23318;BME280;11831;55.918;37.746;2023-06-14T13:15:28;99518.31;;;41.90;24.86
23318;BME280;11831;55.918;37.746;2023-06-14T13:17:55;99516.44;;;40.71;25.78
23318;BME280;11831;55.918;37.746;2023-06-14T13:20:22;99510.66;;;40.15;25.84
23318;BME280;11831;55.918;37.746;2023-06-14T13:22:49;99510.53;;;39.72;25.69